createdAt,value
2023-04-29T00:00:07.820Z,676.57
2023-04-29T00:01:07.954Z,676.58
2023-04-29T00:02:07.810Z,676.57
2023-04-29T00:03:07.879Z,676.58
2023-04-29T00:04:08.022Z,676.58
2023-04-29T00:05:08.122Z,676.59
2023-04-29T00:06:08.010Z,676.59
2023-04-29T00:07:07.732Z,676.58
2023-04-29T00:08:07.700Z,676.58
2023-04-29T00:09:07.721Z,676.58
2023-04-29T00:10:07.679Z,676.59
2023-04-29T00:11:07.692Z,676.57
2023-04-29T00:12:07.668Z,676.59
2023-04-29T00:13:07.667Z,676.58
2023-04-29T00:14:07.640Z,676.58
2023-04-29T00:15:07.649Z,676.57
2023-04-29T00:16:07.652Z,676.58
2023-04-29T00:17:07.689Z,676.58
2023-04-29T00:18:07.679Z,676.58
2023-04-29T00:19:07.588Z,676.58
2023-04-29T00:20:07.578Z,676.59
2023-04-29T00:21:07.634Z,676.58
2023-04-29T00:22:07.561Z,676.58
2023-04-29T00:23:07.538Z,676.58
2023-04-29T00:24:07.538Z,676.58
2023-04-29T00:25:07.534Z,676.58
2023-04-29T00:26:07.526Z,676.59
2023-04-29T00:27:07.541Z,676.58
2023-04-29T00:28:07.491Z,676.58
2023-04-29T00:29:07.478Z,676.59
2023-04-29T00:30:07.447Z,676.59
2023-04-29T00:31:07.526Z,676.59
2023-04-29T00:32:07.438Z,676.59
2023-04-29T00:33:07.465Z,676.57
2023-04-29T00:34:07.406Z,676.58
2023-04-29T00:35:07.400Z,676.58
2023-04-29T00:36:07.434Z,676.58
2023-04-29T00:37:07.415Z,676.57
2023-04-29T00:38:07.367Z,676.58
2023-04-29T00:39:07.361Z,676.58
2023-04-29T00:40:07.344Z,676.58
2023-04-29T00:41:07.369Z,676.57
2023-04-29T00:42:07.346Z,676.58
2023-04-29T00:43:07.317Z,676.57
2023-04-29T00:44:07.313Z,676.58
2023-04-29T00:45:08.365Z,676.58
2023-04-29T00:46:07.319Z,676.57
2023-04-29T00:47:07.286Z,676.58
2023-04-29T00:48:07.321Z,676.58
2023-04-29T00:49:07.248Z,676.57
2023-04-29T00:50:07.333Z,676.59
2023-04-29T00:51:07.238Z,676.58
2023-04-29T00:52:07.202Z,676.58
2023-04-29T00:53:07.242Z,676.58
2023-04-29T00:54:07.203Z,676.57
2023-04-29T00:55:07.198Z,676.58
2023-04-29T00:56:07.165Z,676.58
2023-04-29T00:57:07.166Z,676.58
2023-04-29T00:58:07.147Z,676.57
2023-04-29T00:59:07.159Z,676.58
2023-04-29T01:00:07.115Z,676.58
2023-04-29T01:01:07.183Z,676.58
2023-04-29T01:02:07.091Z,676.57
2023-04-29T01:03:07.180Z,676.58
2023-04-29T01:04:07.367Z,676.58
2023-04-29T01:05:07.991Z,676.57
2023-04-29T01:06:07.055Z,676.58
2023-04-29T01:07:07.085Z,676.58
2023-04-29T01:08:07.065Z,676.58
2023-04-29T01:09:07.089Z,676.58
2023-04-29T01:10:07.152Z,676.58
2023-04-29T01:11:07.152Z,676.57
2023-04-29T01:12:07.082Z,676.58
2023-04-29T01:13:07.163Z,676.58
2023-04-29T01:14:07.176Z,676.58
2023-04-29T01:15:07.156Z,676.58
2023-04-29T01:16:07.133Z,676.57
2023-04-29T01:17:07.168Z,676.58
2023-04-29T01:18:07.122Z,676.58
2023-04-29T01:19:07.156Z,676.58
2023-04-29T01:20:07.093Z,676.57
2023-04-29T01:21:07.043Z,676.58
2023-04-29T01:22:07.067Z,676.58
2023-04-29T01:23:06.864Z,676.58
2023-04-29T01:24:06.858Z,676.58
2023-04-29T01:25:07.160Z,676.58
2023-04-29T01:26:06.875Z,676.58
2023-04-29T01:27:06.824Z,676.58
2023-04-29T01:28:06.860Z,676.58
2023-04-29T01:29:06.803Z,676.58
2023-04-29T01:30:06.780Z,676.58
2023-04-29T01:31:06.904Z,676.58
2023-04-29T01:32:06.776Z,676.58
2023-04-29T01:33:06.815Z,676.58
2023-04-29T01:34:06.738Z,676.58
2023-04-29T01:35:06.737Z,676.58
2023-04-29T01:36:06.741Z,676.58
2023-04-29T01:37:06.721Z,676.58
2023-04-29T01:38:06.707Z,676.59
2023-04-29T01:39:06.704Z,676.58
2023-04-29T01:40:06.666Z,676.58
2023-04-29T01:41:06.665Z,676.58
2023-04-29T01:42:06.680Z,676.58
2023-04-29T01:43:06.648Z,676.58
2023-04-29T01:44:06.626Z,676.58
2023-04-29T01:45:06.634Z,676.58
2023-04-29T01:46:06.636Z,676.59
2023-04-29T01:47:06.721Z,676.59
2023-04-29T01:48:06.648Z,676.58
2023-04-29T01:49:06.573Z,676.58
2023-04-29T01:50:06.557Z,676.59
2023-04-29T01:51:06.553Z,676.59
2023-04-29T01:52:06.541Z,676.58
2023-04-29T01:53:06.553Z,676.58
2023-04-29T01:54:06.525Z,676.59
2023-04-29T01:55:06.514Z,676.58
2023-04-29T01:56:06.498Z,676.58
2023-04-29T01:57:06.493Z,676.59
2023-04-29T01:58:06.506Z,676.59
2023-04-29T01:59:06.460Z,676.58
2023-04-29T02:00:06.457Z,676.58
2023-04-29T02:01:06.444Z,676.58
2023-04-29T02:02:06.440Z,676.58
2023-04-29T02:03:06.523Z,676.58
2023-04-29T02:04:06.792Z,676.59
2023-04-29T02:05:06.399Z,676.58
2023-04-29T02:06:06.384Z,676.58
2023-04-29T02:07:06.384Z,676.58
2023-04-29T02:08:06.369Z,676.58
2023-04-29T02:09:06.349Z,676.58
2023-04-29T02:10:06.365Z,676.59
2023-04-29T02:11:06.349Z,676.58
2023-04-29T02:12:06.335Z,676.58
2023-04-29T02:13:06.300Z,676.59
2023-04-29T02:14:06.501Z,676.59
2023-04-29T02:15:06.297Z,676.57
2023-04-29T02:16:06.341Z,676.59
2023-04-29T02:17:06.277Z,676.59
2023-04-29T02:18:06.355Z,676.59
2023-04-29T02:19:06.263Z,676.59
2023-04-29T02:20:06.269Z,676.59
2023-04-29T02:21:06.211Z,676.58
2023-04-29T02:22:06.350Z,676.58
2023-04-29T02:23:06.197Z,676.58
2023-04-29T02:24:06.207Z,676.58
2023-04-29T02:25:06.169Z,676.58
2023-04-29T02:26:06.178Z,676.60
2023-04-29T02:27:06.148Z,676.58
2023-04-29T02:28:06.146Z,676.57
2023-04-29T02:29:06.128Z,676.59
2023-04-29T02:30:06.146Z,676.57
2023-04-29T02:31:06.118Z,676.59
2023-04-29T02:32:06.145Z,676.58
2023-04-29T02:33:08.300Z,676.59
2023-04-29T02:34:06.864Z,676.59
2023-04-29T02:35:06.055Z,676.59
2023-04-29T02:36:06.066Z,676.57
2023-04-29T02:37:06.051Z,676.58
2023-04-29T02:38:06.044Z,676.58
2023-04-29T02:39:06.033Z,676.58
2023-04-29T02:40:06.064Z,676.59
2023-04-29T02:41:05.999Z,676.58
2023-04-29T02:42:05.982Z,676.58
2023-04-29T02:43:05.968Z,676.58
2023-04-29T02:44:05.968Z,676.58
2023-04-29T02:45:05.950Z,676.58
2023-04-29T02:46:06.009Z,676.58
2023-04-29T02:47:05.925Z,676.57
2023-04-29T02:48:05.982Z,676.59
2023-04-29T02:49:05.908Z,676.58
2023-04-29T02:50:05.906Z,676.58
2023-04-29T02:51:05.921Z,676.59
2023-04-29T02:52:05.979Z,676.58
2023-04-29T02:53:05.914Z,676.58
2023-04-29T02:54:05.860Z,676.58
2023-04-29T02:55:05.844Z,676.58
2023-04-29T02:56:05.836Z,676.58
2023-04-29T02:57:05.824Z,676.59
2023-04-29T02:58:05.819Z,676.58
2023-04-29T02:59:05.789Z,676.59
2023-04-29T03:00:05.780Z,676.58
2023-04-29T03:01:05.803Z,676.57
2023-04-29T03:02:05.834Z,676.58
2023-04-29T03:03:06.014Z,676.59
2023-04-29T03:04:05.925Z,676.58
2023-04-29T03:05:05.726Z,676.59
2023-04-29T03:06:05.741Z,676.59
2023-04-29T03:07:05.721Z,676.58
2023-04-29T03:08:05.762Z,676.59
2023-04-29T03:09:05.680Z,676.59
2023-04-29T03:10:05.677Z,676.57
2023-04-29T03:11:05.662Z,676.58
2023-04-29T03:12:05.660Z,676.59
2023-04-29T03:13:05.672Z,676.58
2023-04-29T03:14:06.175Z,676.58
2023-04-29T03:15:05.615Z,676.58
2023-04-29T03:16:05.614Z,676.58
2023-04-29T03:17:05.659Z,676.59
2023-04-29T03:18:05.663Z,676.59
2023-04-29T03:19:05.566Z,676.58
2023-04-29T03:20:05.574Z,676.58
2023-04-29T03:21:05.551Z,676.58
2023-04-29T03:22:05.562Z,676.60
2023-04-29T03:23:05.583Z,676.59
2023-04-29T03:24:05.526Z,676.58
2023-04-29T03:25:05.488Z,676.58
2023-04-29T03:26:05.552Z,676.58
2023-04-29T03:27:05.477Z,676.58
2023-04-29T03:28:05.493Z,676.59
2023-04-29T03:29:05.454Z,676.59
2023-04-29T03:30:05.455Z,676.58
2023-04-29T03:31:05.449Z,676.57
2023-04-29T03:32:05.431Z,676.59
2023-04-29T03:33:05.449Z,676.58
2023-04-29T03:34:06.219Z,676.59
2023-04-29T03:35:05.387Z,676.58
2023-04-29T03:36:05.386Z,676.57
2023-04-29T03:37:05.372Z,676.58
2023-04-29T03:38:05.363Z,676.58
2023-04-29T03:39:05.371Z,676.58
2023-04-29T03:40:05.354Z,676.59
2023-04-29T03:41:05.598Z,676.58
2023-04-29T03:42:05.322Z,676.59
2023-04-29T03:43:05.293Z,676.58
2023-04-29T03:44:05.319Z,676.58
2023-04-29T03:45:05.270Z,676.58
2023-04-29T03:46:05.327Z,676.58
2023-04-29T03:47:05.249Z,676.58
2023-04-29T03:48:05.307Z,676.58
2023-04-29T03:49:05.279Z,676.58
2023-04-29T03:50:05.232Z,676.58
2023-04-29T03:51:05.197Z,676.58
2023-04-29T03:52:05.201Z,676.58
2023-04-29T03:53:05.178Z,676.59
2023-04-29T03:54:05.229Z,676.59
2023-04-29T03:55:05.174Z,676.58
2023-04-29T03:56:05.163Z,676.59
2023-04-29T03:57:05.138Z,676.58
2023-04-29T03:58:05.160Z,676.59
2023-04-29T03:59:05.133Z,676.58
2023-04-29T04:00:05.122Z,676.58
2023-04-29T04:01:05.100Z,676.58
2023-04-29T04:02:05.121Z,676.58
2023-04-29T04:03:05.817Z,676.58
2023-04-29T04:04:05.182Z,676.59
2023-04-29T04:05:05.083Z,676.58
2023-04-29T04:06:05.072Z,676.59
2023-04-29T04:07:05.020Z,676.58
2023-04-29T04:08:05.025Z,676.58
2023-04-29T04:09:05.031Z,676.58
2023-04-29T04:10:05.007Z,676.59
2023-04-29T04:11:04.995Z,676.59
2023-04-29T04:12:04.981Z,676.58
2023-04-29T04:13:04.971Z,676.58
2023-04-29T04:14:04.964Z,676.58
2023-04-29T04:15:04.968Z,676.57
2023-04-29T04:16:04.976Z,676.59
2023-04-29T04:17:04.925Z,676.58
2023-04-29T04:18:04.941Z,676.59
2023-04-29T04:19:04.898Z,676.58
2023-04-29T04:20:04.912Z,676.58
2023-04-29T04:21:04.880Z,676.58
2023-04-29T04:22:04.876Z,676.58
2023-04-29T04:23:04.841Z,676.58
2023-04-29T04:24:04.828Z,676.58
2023-04-29T04:25:04.882Z,676.58
2023-04-29T04:26:04.834Z,676.59
2023-04-29T04:27:04.808Z,676.58
2023-04-29T04:28:04.833Z,676.59
2023-04-29T04:29:04.778Z,676.59
2023-04-29T04:30:04.786Z,676.58
2023-04-29T04:31:04.782Z,676.58
2023-04-29T04:32:05.006Z,676.57
2023-04-29T04:33:04.806Z,676.58
2023-04-29T04:34:04.990Z,676.58
2023-04-29T04:35:04.834Z,676.58
2023-04-29T04:36:04.887Z,676.59
2023-04-29T04:37:04.812Z,676.58
2023-04-29T04:38:04.812Z,676.60
2023-04-29T04:39:04.857Z,676.59
2023-04-29T04:40:05.002Z,676.59
2023-04-29T04:41:04.925Z,676.58
2023-04-29T04:42:04.957Z,676.58
2023-04-29T04:43:05.097Z,676.58
2023-04-29T04:44:04.773Z,676.58
2023-04-29T04:45:04.750Z,676.57
2023-04-29T04:46:04.775Z,676.59
2023-04-29T04:47:04.770Z,676.59
2023-04-29T04:48:04.803Z,676.59
2023-04-29T04:49:04.812Z,676.58
2023-04-29T04:50:04.724Z,676.58
2023-04-29T04:51:04.883Z,676.59
2023-04-29T04:52:04.834Z,676.59
2023-04-29T04:53:04.567Z,676.58
2023-04-29T04:54:04.807Z,676.59
2023-04-29T04:55:04.488Z,676.59
2023-04-29T04:56:04.492Z,676.58
2023-04-29T04:57:04.463Z,676.58
2023-04-29T04:58:04.464Z,676.59
2023-04-29T04:59:04.493Z,676.57
2023-04-29T05:00:04.471Z,676.57
2023-04-29T05:01:04.469Z,676.58
2023-04-29T05:02:04.474Z,676.57
2023-04-29T05:03:04.590Z,676.58
2023-04-29T05:04:04.486Z,676.58
2023-04-29T05:05:04.427Z,676.58
2023-04-29T05:06:04.617Z,676.59
2023-04-29T05:07:04.360Z,676.58
2023-04-29T05:08:04.373Z,676.59
2023-04-29T05:09:04.351Z,676.59
2023-04-29T05:10:04.346Z,676.58
2023-04-29T05:11:04.308Z,676.59
2023-04-29T05:12:04.304Z,676.59
2023-04-29T05:13:04.307Z,676.58
2023-04-29T05:14:04.292Z,676.58
2023-04-29T05:15:04.288Z,676.58
2023-04-29T05:16:06.369Z,676.58
2023-04-29T05:17:04.296Z,676.58
2023-04-29T05:18:04.309Z,676.58
2023-04-29T05:19:04.219Z,676.58
2023-04-29T05:20:04.245Z,676.58
2023-04-29T05:21:04.197Z,676.59
2023-04-29T05:22:04.196Z,676.59
2023-04-29T05:23:04.191Z,676.58
2023-04-29T05:24:04.181Z,676.58
2023-04-29T05:25:04.158Z,676.58
2023-04-29T05:26:04.163Z,676.59
2023-04-29T05:27:04.141Z,676.58
2023-04-29T05:28:04.131Z,676.57
2023-04-29T05:29:04.112Z,676.59
2023-04-29T05:30:04.116Z,676.58
2023-04-29T05:31:04.102Z,676.59
2023-04-29T05:32:04.082Z,676.58
2023-04-29T05:33:04.108Z,676.59
2023-04-29T05:34:04.053Z,676.58
2023-04-29T05:35:06.701Z,676.58
2023-04-29T05:36:04.063Z,676.58
2023-04-29T05:37:04.024Z,676.57
2023-04-29T05:38:04.022Z,676.58
2023-04-29T05:39:04.040Z,676.58
2023-04-29T05:40:04.005Z,676.58
2023-04-29T05:41:04.016Z,676.58
2023-04-29T05:42:03.967Z,676.58
2023-04-29T05:43:04.424Z,676.58
2023-04-29T05:44:03.951Z,676.58
2023-04-29T05:45:03.927Z,676.58
2023-04-29T05:46:03.970Z,676.58
2023-04-29T05:47:03.933Z,676.58
2023-04-29T05:48:03.988Z,676.58
2023-04-29T05:49:03.900Z,676.58
2023-04-29T05:50:03.971Z,676.58
2023-04-29T05:51:03.867Z,676.58
2023-04-29T05:52:03.888Z,676.58
2023-04-29T05:53:03.886Z,676.58
2023-04-29T05:54:03.857Z,676.59
2023-04-29T05:55:03.857Z,676.57
2023-04-29T05:56:03.813Z,676.58
2023-04-29T05:57:03.801Z,676.59
2023-04-29T05:58:03.852Z,676.58
2023-04-29T05:59:03.784Z,676.58
2023-04-29T06:00:03.792Z,676.59
2023-04-29T06:01:03.754Z,676.58
2023-04-29T06:02:03.757Z,676.58
2023-04-29T06:03:04.235Z,676.58
2023-04-29T06:04:03.868Z,676.58
2023-04-29T06:05:04.044Z,676.58
2023-04-29T06:06:03.871Z,676.60
2023-04-29T06:07:03.693Z,676.59
2023-04-29T06:08:03.692Z,676.59
2023-04-29T06:09:05.209Z,676.58
2023-04-29T06:10:03.645Z,676.58
2023-04-29T06:11:03.736Z,676.58
2023-04-29T06:12:03.658Z,676.59
2023-04-29T06:13:03.637Z,676.58
2023-04-29T06:14:03.614Z,676.58
2023-04-29T06:15:03.622Z,676.59
2023-04-29T06:16:03.658Z,676.58
2023-04-29T06:17:03.586Z,676.58
2023-04-29T06:18:03.612Z,676.58
2023-04-29T06:19:03.557Z,676.58
2023-04-29T06:20:03.578Z,676.59
2023-04-29T06:21:03.535Z,676.57
2023-04-29T06:22:03.509Z,676.58
2023-04-29T06:23:03.522Z,676.57
2023-04-29T06:24:03.490Z,676.58
2023-04-29T06:25:03.507Z,676.59
2023-04-29T06:26:03.509Z,676.58
2023-04-29T06:27:03.473Z,676.57
2023-04-29T06:28:03.450Z,676.57
2023-04-29T06:29:03.455Z,676.59
2023-04-29T06:30:03.447Z,676.57
2023-04-29T06:31:03.422Z,676.58
2023-04-29T06:32:03.471Z,676.58
2023-04-29T06:33:03.470Z,676.58
2023-04-29T06:34:03.384Z,676.59
2023-04-29T06:35:03.395Z,676.58
2023-04-29T06:36:03.398Z,676.58
2023-04-29T06:37:03.382Z,676.58
2023-04-29T06:38:03.471Z,676.58
2023-04-29T06:39:03.370Z,676.59
2023-04-29T06:40:03.333Z,676.58
2023-04-29T06:41:03.322Z,676.58
2023-04-29T06:42:03.335Z,676.58
2023-04-29T06:43:03.284Z,676.57
2023-04-29T06:44:03.265Z,676.58
2023-04-29T06:45:03.258Z,676.58
2023-04-29T06:46:03.254Z,676.57
2023-04-29T06:47:03.283Z,676.58
2023-04-29T06:48:03.264Z,676.58
2023-04-29T06:49:03.226Z,676.58
2023-04-29T06:50:03.206Z,676.58
2023-04-29T06:51:03.216Z,676.59
2023-04-29T06:52:03.191Z,676.58
2023-04-29T06:53:03.179Z,676.59
2023-04-29T06:54:03.159Z,676.58
2023-04-29T06:55:03.195Z,676.59
2023-04-29T06:56:03.126Z,676.57
2023-04-29T06:57:03.154Z,676.59
2023-04-29T06:58:03.111Z,676.59
2023-04-29T06:59:03.132Z,676.58
2023-04-29T07:00:03.113Z,676.59
2023-04-29T07:01:03.135Z,676.59
2023-04-29T07:02:03.059Z,676.59
2023-04-29T07:03:03.119Z,676.58
2023-04-29T07:04:03.125Z,676.59
2023-04-29T07:05:03.098Z,676.58
2023-04-29T07:06:03.040Z,676.58
2023-04-29T07:07:03.029Z,676.58
2023-04-29T07:08:03.015Z,676.58
2023-04-29T07:09:02.987Z,676.58
2023-04-29T07:10:02.990Z,676.59
2023-04-29T07:11:02.972Z,676.57
2023-04-29T07:12:03.560Z,676.58
2023-04-29T07:13:02.984Z,676.59
2023-04-29T07:14:02.957Z,676.58
2023-04-29T07:15:02.954Z,676.58
2023-04-29T07:16:02.914Z,676.59
2023-04-29T07:17:02.966Z,676.57
2023-04-29T07:18:02.982Z,1334.57
2023-04-29T07:19:02.913Z,1334.57
2023-04-29T07:20:02.878Z,1334.57
2023-04-29T07:21:02.876Z,1334.57
2023-04-29T07:22:02.852Z,676.57
2023-04-29T07:23:02.851Z,676.58
2023-04-29T07:24:02.873Z,676.58
2023-04-29T07:25:02.861Z,676.58
2023-04-29T07:26:02.817Z,676.59
2023-04-29T07:27:02.815Z,676.58
2023-04-29T07:28:02.777Z,676.58
2023-04-29T07:29:02.776Z,676.58
2023-04-29T07:30:02.787Z,676.57
2023-04-29T07:31:02.777Z,676.59
2023-04-29T07:32:02.740Z,676.58
2023-04-29T07:33:02.804Z,676.58
2023-04-29T07:34:02.761Z,676.58
2023-04-29T07:35:02.739Z,676.58
2023-04-29T07:36:02.690Z,676.58
2023-04-29T07:37:02.686Z,676.57
2023-04-29T07:38:02.694Z,676.59
2023-04-29T07:39:02.687Z,676.58
2023-04-29T07:40:02.668Z,676.58
2023-04-29T07:41:02.631Z,676.59
2023-04-29T07:42:02.619Z,676.58
2023-04-29T07:43:02.734Z,1334.57
2023-04-29T07:44:02.599Z,1334.57
2023-04-29T07:45:02.598Z,676.59
2023-04-29T07:46:02.634Z,676.58
2023-04-29T07:47:02.569Z,676.58
2023-04-29T07:48:02.625Z,676.58
2023-04-29T07:49:02.556Z,676.59
2023-04-29T07:50:02.564Z,676.57
2023-04-29T07:51:02.527Z,676.58
2023-04-29T07:52:02.770Z,676.58
2023-04-29T07:53:02.505Z,676.58
2023-04-29T07:54:02.478Z,676.59
2023-04-29T07:55:02.567Z,676.59
2023-04-29T07:56:02.463Z,676.59
2023-04-29T07:57:02.460Z,676.58
2023-04-29T07:58:02.447Z,676.58
2023-04-29T07:59:02.495Z,676.59
2023-04-29T08:00:02.429Z,676.57
2023-04-29T08:01:02.436Z,676.58
2023-04-29T08:02:02.389Z,676.58
2023-04-29T08:03:02.587Z,676.60
2023-04-29T08:04:02.639Z,676.58
2023-04-29T08:05:03.446Z,676.58
2023-04-29T08:06:02.613Z,676.58
2023-04-29T08:07:02.402Z,676.58
2023-04-29T08:08:02.394Z,676.58
2023-04-29T08:09:03.299Z,676.59
2023-04-29T08:10:02.508Z,676.58
2023-04-29T08:11:02.549Z,676.58
2023-04-29T08:12:03.099Z,676.57
2023-04-29T08:13:02.472Z,676.58
2023-04-29T08:14:02.483Z,676.58
2023-04-29T08:15:02.442Z,676.58
2023-04-29T08:16:02.595Z,676.57
2023-04-29T08:17:02.526Z,676.58
2023-04-29T08:18:02.366Z,676.58
2023-04-29T08:19:02.710Z,676.59
2023-04-29T08:20:02.237Z,676.57
2023-04-29T08:21:02.196Z,676.58
2023-04-29T08:22:02.166Z,676.58
2023-04-29T08:23:02.172Z,676.59
2023-04-29T08:24:02.160Z,1334.57
2023-04-29T08:25:02.173Z,1334.57
2023-04-29T08:26:02.159Z,1334.57
2023-04-29T08:27:02.120Z,676.57
2023-04-29T08:28:02.120Z,676.57
2023-04-29T08:29:02.104Z,676.58
2023-04-29T08:30:02.097Z,676.57
2023-04-29T08:31:02.066Z,676.58
2023-04-29T08:32:02.693Z,676.58
2023-04-29T08:33:02.088Z,676.57
2023-04-29T08:34:02.047Z,676.58
2023-04-29T08:35:02.046Z,676.58
2023-04-29T08:36:02.012Z,676.58
2023-04-29T08:37:02.038Z,676.58
2023-04-29T08:38:02.012Z,676.58
2023-04-29T08:39:01.986Z,676.59
2023-04-29T08:40:01.957Z,676.58
2023-04-29T08:41:01.992Z,676.58
2023-04-29T08:42:01.985Z,676.59
2023-04-29T08:43:01.938Z,676.58
2023-04-29T08:44:01.941Z,676.58
2023-04-29T08:45:01.926Z,676.58
2023-04-29T08:46:02.457Z,676.58
2023-04-29T08:47:01.905Z,676.59
2023-04-29T08:48:02.044Z,676.58
2023-04-29T08:49:01.876Z,676.57
2023-04-29T08:50:01.850Z,676.58
2023-04-29T08:51:01.850Z,676.58
2023-04-29T08:52:01.851Z,676.59
2023-04-29T08:53:01.858Z,676.58
2023-04-29T08:54:01.816Z,676.59
2023-04-29T08:55:01.816Z,676.58
2023-04-29T08:56:01.796Z,676.58
2023-04-29T08:57:01.798Z,676.59
2023-04-29T08:58:01.796Z,676.59
2023-04-29T08:59:01.887Z,676.58
2023-04-29T09:00:01.795Z,676.58
2023-04-29T09:01:01.792Z,676.58
2023-04-29T09:02:01.718Z,676.58
2023-04-29T09:03:01.922Z,676.58
2023-04-29T09:04:01.972Z,676.58
2023-04-29T09:05:01.770Z,676.58
2023-04-29T09:06:01.688Z,676.58
2023-04-29T09:07:01.670Z,676.58
2023-04-29T09:08:01.658Z,676.58
2023-04-29T09:09:01.649Z,676.57
2023-04-29T09:10:01.652Z,676.59
2023-04-29T09:11:01.646Z,676.57
2023-04-29T09:12:01.860Z,676.58
2023-04-29T09:13:01.602Z,676.57
2023-04-29T09:14:01.619Z,676.59
2023-04-29T09:15:01.577Z,676.59
2023-04-29T09:16:01.569Z,676.59
2023-04-29T09:17:01.550Z,676.58
2023-04-29T09:18:01.591Z,676.58
2023-04-29T09:19:01.549Z,676.58
2023-04-29T09:20:01.542Z,676.58
2023-04-29T09:21:01.535Z,676.59
2023-04-29T09:22:01.509Z,676.58
2023-04-29T09:23:01.573Z,676.58
2023-04-29T09:24:01.496Z,676.58
2023-04-29T09:25:01.530Z,676.58
2023-04-29T09:26:01.449Z,676.59
2023-04-29T09:27:01.470Z,676.58
2023-04-29T09:28:01.432Z,676.59
2023-04-29T09:29:01.432Z,676.59
2023-04-29T09:30:01.415Z,676.60
2023-04-29T09:31:01.459Z,676.59
2023-04-29T09:32:01.440Z,676.59
2023-04-29T09:33:01.463Z,676.58
2023-04-29T09:34:01.360Z,676.58
2023-04-29T09:35:01.362Z,676.58
2023-04-29T09:36:01.353Z,676.59
2023-04-29T09:37:01.341Z,676.59
2023-04-29T09:38:01.323Z,676.59
2023-04-29T09:39:01.324Z,676.59
2023-04-29T09:40:01.300Z,676.59
2023-04-29T09:41:02.435Z,676.58
2023-04-29T09:42:01.275Z,676.58
2023-04-29T09:43:01.270Z,676.60
2023-04-29T09:44:01.255Z,676.59
2023-04-29T09:45:01.251Z,676.58
2023-04-29T09:46:01.318Z,676.58
2023-04-29T09:47:01.269Z,676.59
2023-04-29T09:48:01.278Z,676.58
2023-04-29T09:49:01.197Z,676.60
2023-04-29T09:50:01.186Z,676.58
2023-04-29T09:51:01.182Z,676.60
2023-04-29T09:52:01.197Z,676.59
2023-04-29T09:53:01.166Z,676.59
2023-04-29T09:54:01.136Z,676.59
2023-04-29T09:55:01.138Z,676.59
2023-04-29T09:56:01.170Z,676.58
2023-04-29T09:57:01.208Z,676.59
2023-04-29T09:58:01.130Z,676.58
2023-04-29T09:59:01.101Z,676.58
2023-04-29T10:00:01.090Z,676.58
2023-04-29T10:01:01.421Z,676.59
2023-04-29T10:02:01.205Z,676.58
2023-04-29T10:03:01.156Z,676.59
2023-04-29T10:04:01.033Z,676.59
2023-04-29T10:05:01.049Z,676.59
2023-04-29T10:06:01.009Z,676.59
2023-04-29T10:07:00.994Z,676.59
2023-04-29T10:08:00.997Z,676.58
2023-04-29T10:09:01.008Z,676.59
2023-04-29T10:10:00.955Z,676.60
2023-04-29T10:11:00.948Z,676.59
2023-04-29T10:12:00.936Z,676.60
2023-04-29T10:13:00.954Z,676.60
2023-04-29T10:14:00.921Z,676.59
2023-04-29T10:15:00.909Z,676.58
2023-04-29T10:16:00.932Z,676.60
2023-04-29T10:17:00.893Z,676.60
2023-04-29T10:18:00.907Z,676.59
2023-04-29T10:19:00.885Z,676.60
2023-04-29T10:20:00.840Z,676.58
2023-04-29T10:21:01.202Z,676.60
2023-04-29T10:22:00.821Z,676.59
2023-04-29T10:23:00.821Z,676.59
2023-04-29T10:24:00.843Z,676.58
2023-04-29T10:25:00.793Z,676.59
2023-04-29T10:26:00.794Z,676.60
2023-04-29T10:27:00.780Z,676.59
2023-04-29T10:28:00.774Z,676.60
2023-04-29T10:29:00.746Z,676.59
2023-04-29T10:30:00.774Z,676.59
2023-04-29T10:31:00.761Z,676.60
2023-04-29T10:32:00.734Z,676.59
2023-04-29T10:33:01.792Z,676.59
2023-04-29T10:34:00.725Z,676.59
2023-04-29T10:35:00.708Z,676.59
2023-04-29T10:36:00.685Z,676.60
2023-04-29T10:37:00.660Z,676.60
2023-04-29T10:38:00.667Z,676.59
2023-04-29T10:39:00.630Z,676.60
2023-04-29T10:40:00.686Z,676.59
2023-04-29T10:41:00.658Z,676.59
2023-04-29T10:42:00.612Z,676.60
2023-04-29T10:43:00.596Z,676.59
2023-04-29T10:44:02.831Z,676.59
2023-04-29T10:45:00.590Z,676.59
2023-04-29T10:46:00.586Z,676.60
2023-04-29T10:47:00.616Z,676.59
2023-04-29T10:48:00.553Z,676.60
2023-04-29T10:49:00.523Z,676.60
2023-04-29T10:50:00.529Z,676.59
2023-04-29T10:51:00.518Z,676.60
2023-04-29T10:52:00.515Z,676.60
2023-04-29T10:53:00.486Z,676.60
2023-04-29T10:54:00.500Z,676.60
2023-04-29T10:55:00.462Z,676.61
2023-04-29T10:56:00.473Z,676.60
2023-04-29T10:57:00.432Z,676.60
2023-04-29T10:58:00.444Z,676.61
2023-04-29T10:59:00.426Z,676.60
2023-04-29T11:00:00.422Z,676.60
2023-04-29T11:01:00.430Z,676.61
2023-04-29T11:02:00.400Z,676.60
2023-04-29T11:03:00.446Z,676.61
2023-04-29T11:04:00.510Z,676.60
2023-04-29T11:05:00.461Z,676.60
2023-04-29T11:06:00.366Z,676.60
2023-04-29T11:07:00.326Z,676.60
2023-04-29T11:08:00.324Z,676.61
2023-04-29T11:09:00.315Z,676.61
2023-04-29T11:10:00.386Z,676.62
2023-04-29T11:11:00.278Z,676.60
2023-04-29T11:12:00.298Z,676.61
2023-04-29T11:13:00.265Z,676.61
2023-04-29T11:14:00.250Z,676.60
2023-04-29T11:15:00.247Z,676.61
2023-04-29T11:16:00.262Z,676.61
2023-04-29T11:17:00.243Z,676.61
2023-04-29T11:18:00.305Z,676.61
2023-04-29T11:19:00.191Z,676.61
2023-04-29T11:20:00.237Z,676.60
2023-04-29T11:21:00.306Z,676.60
2023-04-29T11:22:00.164Z,676.60
2023-04-29T11:23:00.157Z,676.61
2023-04-29T11:24:00.161Z,676.61
2023-04-29T11:25:00.169Z,676.61
2023-04-29T11:26:00.143Z,676.61
2023-04-29T11:27:00.138Z,676.61
2023-04-29T11:28:00.163Z,676.61
2023-04-29T11:29:00.120Z,676.61
2023-04-29T11:30:00.118Z,676.61
2023-04-29T11:31:00.171Z,676.61
2023-04-29T11:32:00.225Z,676.61
2023-04-29T11:33:00.154Z,676.61
2023-04-29T11:34:00.032Z,676.60
2023-04-29T11:35:00.030Z,676.60
2023-04-29T11:36:00.011Z,676.60
2023-04-29T11:37:00.034Z,676.61
2023-04-29T11:38:00.007Z,676.61
2023-04-29T11:38:59.972Z,676.61
2023-04-29T11:40:00.002Z,676.60
2023-04-29T11:40:59.977Z,676.62
2023-04-29T11:41:59.947Z,676.60
2023-04-29T11:42:59.966Z,676.62
2023-04-29T11:43:59.923Z,676.62
2023-04-29T11:44:59.926Z,676.62
2023-04-29T11:45:59.921Z,676.62
2023-04-29T11:46:59.888Z,676.62
2023-04-29T11:47:59.891Z,676.61
2023-04-29T11:48:59.884Z,676.60
2023-04-29T11:49:59.952Z,676.61
2023-04-29T11:50:59.838Z,676.61
2023-04-29T11:51:59.829Z,676.61
2023-04-29T11:52:59.831Z,676.61
2023-04-29T11:53:59.846Z,676.60
2023-04-29T11:54:59.802Z,676.61
2023-04-29T11:55:59.791Z,676.61
2023-04-29T11:56:59.770Z,676.62
2023-04-29T11:57:59.773Z,676.63
2023-04-29T11:58:59.776Z,676.61
2023-04-29T11:59:59.758Z,676.60
2023-04-29T12:00:59.726Z,676.62
2023-04-29T12:01:59.721Z,676.61
2023-04-29T12:02:59.960Z,676.61
2023-04-29T12:04:00.173Z,676.60
2023-04-29T12:05:00.191Z,676.64
2023-04-29T12:05:59.750Z,676.61
2023-04-29T12:06:59.669Z,676.62
2023-04-29T12:07:59.660Z,676.62
2023-04-29T12:08:59.668Z,676.62
2023-04-29T12:09:59.668Z,676.61
2023-04-29T12:10:59.616Z,676.62
2023-04-29T12:11:59.619Z,676.61
2023-04-29T12:12:59.593Z,676.61
2023-04-29T12:13:59.604Z,676.61
2023-04-29T12:14:59.583Z,676.61
2023-04-29T12:15:59.638Z,676.61
2023-04-29T12:16:59.584Z,676.62
2023-04-29T12:17:59.589Z,676.62
2023-04-29T12:18:59.528Z,676.61
2023-04-29T12:19:59.523Z,676.62
2023-04-29T12:20:59.521Z,676.61
2023-04-29T12:21:59.519Z,676.61
2023-04-29T12:22:59.507Z,676.62
2023-04-29T12:23:59.473Z,676.61
2023-04-29T12:24:59.451Z,676.62
2023-04-29T12:25:59.464Z,676.61
2023-04-29T12:26:59.502Z,676.61
2023-04-29T12:27:59.429Z,676.62